createdAt,value
2023-05-14T00:01:53.227Z,101977.41
2023-05-14T00:04:20.183Z,101975.59
2023-05-14T00:06:47.095Z,101979.00
2023-05-14T00:09:13.984Z,101980.72
2023-05-14T00:11:40.926Z,101976.31
2023-05-14T00:14:07.813Z,101979.72
2023-05-14T00:16:34.821Z,101978.84
2023-05-14T00:19:01.847Z,101971.78
2023-05-14T00:21:28.751Z,101968.28
2023-05-14T00:23:55.688Z,101970.88
2023-05-14T00:26:22.696Z,101965.56
2023-05-14T00:28:49.812Z,101958.56
2023-05-14T00:31:16.744Z,101958.53
2023-05-14T00:33:43.662Z,101956.78
2023-05-14T00:36:10.847Z,101962.84
2023-05-14T00:38:37.770Z,101947.94
2023-05-14T00:41:04.779Z,101957.41
2023-05-14T00:43:33.181Z,101952.94
2023-05-14T00:46:00.404Z,101952.81
2023-05-14T00:48:27.342Z,101953.66
2023-05-14T00:50:54.432Z,101950.16
2023-05-14T00:53:21.626Z,101964.06
2023-05-14T00:55:50.057Z,101948.31
2023-05-14T00:58:18.061Z,101947.38
2023-05-14T01:00:45.449Z,101949.09
2023-05-14T01:03:12.436Z,101949.88
2023-05-14T01:06:29.216Z,101953.38
2023-05-14T01:09:09.175Z,101944.63
2023-05-14T01:12:02.952Z,101948.03
2023-05-14T01:14:59.626Z,101947.97
2023-05-14T01:17:30.367Z,101947.94
2023-05-14T01:19:58.148Z,101939.16
2023-05-14T01:22:25.467Z,101945.25
2023-05-14T01:24:52.352Z,101939.00
2023-05-14T01:27:34.480Z,101940.81
2023-05-14T01:30:35.483Z,101939.03
2023-05-14T01:33:06.883Z,101932.84
2023-05-14T01:35:34.033Z,101935.50
2023-05-14T01:38:05.244Z,101926.69
2023-05-14T01:40:33.908Z,101929.31
2023-05-14T01:43:02.560Z,101918.78
2023-05-14T01:45:31.073Z,101925.75
2023-05-14T01:47:59.647Z,101916.13
2023-05-14T01:50:26.617Z,101917.81
2023-05-14T01:52:56.350Z,101913.41
2023-05-14T01:55:26.966Z,101911.63
2023-05-14T01:57:54.518Z,101908.06
2023-05-14T02:00:23.931Z,101911.56
2023-05-14T02:02:51.190Z,101904.56
2023-05-14T02:05:18.210Z,101908.00
2023-05-14T02:07:45.151Z,101907.94
2023-05-14T02:10:12.048Z,101912.28
2023-05-14T02:12:38.931Z,101904.44
2023-05-14T02:15:06.560Z,101897.38
2023-05-14T02:17:33.638Z,101906.13
2023-05-14T02:20:00.712Z,101898.31
2023-05-14T02:22:27.555Z,101905.28
2023-05-14T02:24:54.410Z,101904.38
2023-05-14T02:27:21.393Z,101905.28
2023-05-14T02:29:48.253Z,101894.75
2023-05-14T02:32:15.269Z,101900.00
2023-05-14T02:34:42.134Z,101892.16
2023-05-14T02:37:09.023Z,101895.66
2023-05-14T02:39:35.889Z,101896.47
2023-05-14T02:42:02.752Z,101893.84
2023-05-14T02:44:31.662Z,101891.19
2023-05-14T02:46:58.616Z,101888.56
2023-05-14T02:49:25.563Z,101880.69
2023-05-14T02:51:54.319Z,101880.63
2023-05-14T02:54:21.313Z,101879.63
2023-05-14T02:56:48.380Z,101881.38
2023-05-14T02:59:15.281Z,101888.28
2023-05-14T03:01:42.603Z,101890.81
2023-05-14T03:04:10.052Z,101880.22
2023-05-14T03:06:36.940Z,101887.13
2023-05-14T03:09:03.872Z,101880.03
2023-05-14T03:11:30.896Z,101880.88
2023-05-14T03:13:57.814Z,101883.41
2023-05-14T03:16:24.795Z,101887.66
2023-05-14T03:18:51.706Z,101883.22
2023-05-14T03:21:18.732Z,101889.25
2023-05-14T03:23:45.724Z,101890.09
2023-05-14T03:26:12.657Z,101879.56
2023-05-14T03:28:40.799Z,101892.59
2023-05-14T03:31:07.827Z,101889.13
2023-05-14T03:33:34.781Z,101890.00
2023-05-14T03:36:01.740Z,101883.00
2023-05-14T03:38:28.635Z,101894.34
2023-05-14T03:40:55.606Z,101891.72
2023-05-14T03:43:22.494Z,101896.13
2023-05-14T03:45:52.529Z,101900.47
2023-05-14T03:48:20.516Z,101892.66
2023-05-14T03:50:47.674Z,101885.72
2023-05-14T03:53:14.679Z,101891.81
2023-05-14T03:55:41.576Z,101890.09
2023-05-14T03:58:14.148Z,101892.78
2023-05-14T04:00:44.425Z,101887.56
2023-05-14T04:03:11.818Z,101885.88
2023-05-14T04:05:38.876Z,101875.53
2023-05-14T04:08:06.159Z,101869.56
2023-05-14T04:10:33.102Z,101879.16
2023-05-14T04:13:00.799Z,101878.31
2023-05-14T04:15:32.117Z,101873.09
2023-05-14T04:17:59.089Z,101870.47
2023-05-14T04:20:26.078Z,101878.25
2023-05-14T04:22:54.088Z,101863.50
2023-05-14T04:25:21.055Z,101868.72
2023-05-14T04:27:47.948Z,101860.84
2023-05-14T04:30:15.051Z,101863.50
2023-05-14T04:32:41.997Z,101866.16
2023-05-14T04:35:10.216Z,101856.59
2023-05-14T04:37:37.260Z,101857.53
2023-05-14T04:40:05.778Z,101866.34
2023-05-14T04:42:32.700Z,101861.88
2023-05-14T04:44:59.616Z,101865.38
2023-05-14T04:47:26.652Z,101866.19
2023-05-14T04:49:53.551Z,101852.09
2023-05-14T04:52:20.472Z,101871.22
2023-05-14T04:54:47.421Z,101862.50
2023-05-14T04:57:14.394Z,101867.69
2023-05-14T04:59:41.309Z,101868.59
2023-05-14T05:02:08.383Z,101858.94
2023-05-14T05:04:35.291Z,101846.72
2023-05-14T05:07:02.166Z,101856.63
2023-05-14T05:09:29.045Z,101862.09
2023-05-14T05:11:56.056Z,101847.38
2023-05-14T05:14:22.938Z,101851.75
2023-05-14T05:16:50.716Z,101849.94
2023-05-14T05:19:17.790Z,101860.44
2023-05-14T05:21:44.735Z,101858.81
2023-05-14T05:24:11.641Z,101855.31
2023-05-14T05:26:38.518Z,101852.72
2023-05-14T05:29:05.996Z,101863.16
2023-05-14T05:31:33.068Z,101860.53
2023-05-14T05:34:00.742Z,101862.25
2023-05-14T05:36:27.647Z,101864.91
2023-05-14T05:38:55.426Z,101837.78
2023-05-14T05:41:22.533Z,101850.22
2023-05-14T05:43:49.444Z,101852.19
2023-05-14T05:46:16.438Z,101861.91
2023-05-14T05:48:43.363Z,101855.25
2023-05-14T05:51:10.296Z,101858.91
2023-05-14T05:53:37.208Z,101839.84
2023-05-14T05:56:04.139Z,101848.75
2023-05-14T05:58:31.013Z,101844.56
2023-05-14T06:00:58.227Z,101841.25
2023-05-14T06:03:25.303Z,101842.25
2023-05-14T06:05:52.709Z,101847.59
2023-05-14T06:08:19.737Z,101840.72
2023-05-14T06:10:47.672Z,101840.84
2023-05-14T06:13:14.714Z,101835.69
2023-05-14T06:15:41.672Z,101840.22
2023-05-14T06:18:08.745Z,101851.69
2023-05-14T06:20:35.735Z,101846.53
2023-05-14T06:23:02.624Z,101857.03
2023-05-14T06:25:29.560Z,101858.88
2023-05-14T06:27:56.469Z,101858.94
2023-05-14T06:30:23.656Z,101859.88
2023-05-14T06:32:51.760Z,101844.16
2023-05-14T06:35:19.215Z,101848.63
2023-05-14T06:37:46.261Z,101843.41
2023-05-14T06:40:15.652Z,101842.53
2023-05-14T06:42:42.561Z,101832.06
2023-05-14T06:45:09.768Z,101839.94
2023-05-14T06:47:36.710Z,101834.66
2023-05-14T06:50:03.870Z,101834.66
2023-05-14T06:52:30.792Z,101832.91
2023-05-14T06:54:57.671Z,101827.63
2023-05-14T06:57:24.711Z,101832.84
2023-05-14T06:59:51.621Z,101831.06
2023-05-14T07:02:18.535Z,101829.28
2023-05-14T07:04:45.699Z,101829.25
2023-05-14T07:07:15.444Z,101822.16
2023-05-14T07:09:42.748Z,101828.25
2023-05-14T07:12:09.736Z,101822.06
2023-05-14T07:14:36.653Z,101814.94
2023-05-14T07:17:03.675Z,101813.91
2023-05-14T07:19:30.677Z,101811.16
2023-05-14T07:21:58.124Z,101810.16
2023-05-14T07:24:25.016Z,101808.31
2023-05-14T07:26:51.954Z,101802.88
2023-05-14T07:29:18.841Z,101814.22
2023-05-14T07:31:45.760Z,101806.22
2023-05-14T07:34:12.861Z,101799.91
2023-05-14T07:36:39.859Z,101791.84
2023-05-14T07:39:06.758Z,101800.41
2023-05-14T07:41:33.702Z,101792.38
2023-05-14T07:44:00.682Z,101797.50
2023-05-14T07:46:27.573Z,101792.00
2023-05-14T07:48:54.495Z,101786.56
2023-05-14T07:51:21.381Z,101780.25
2023-05-14T07:53:48.266Z,101775.56
2023-05-14T07:56:15.235Z,101770.09
2023-05-14T07:58:42.166Z,101778.78
2023-05-14T08:01:09.217Z,101780.28
2023-05-14T08:03:36.242Z,101772.13
2023-05-14T08:06:03.926Z,101773.63
2023-05-14T08:08:30.980Z,101773.38
2023-05-14T08:10:57.975Z,101773.09
2023-05-14T08:13:24.899Z,101774.59
2023-05-14T08:15:52.280Z,101771.75
2023-05-14T08:18:19.173Z,101765.28
2023-05-14T08:20:46.088Z,101762.38
2023-05-14T08:23:13.052Z,101758.59
2023-05-14T08:25:40.059Z,101758.47
2023-05-14T08:28:07.584Z,101762.69
2023-05-14T08:30:34.688Z,101755.47
2023-05-14T08:33:21.113Z,101747.34
2023-05-14T08:36:08.781Z,101747.13
2023-05-14T08:38:35.719Z,101760.22
2023-05-14T08:41:05.882Z,101744.13
2023-05-14T08:44:15.027Z,101742.22
2023-05-14T08:46:42.234Z,101744.63
2023-05-14T08:49:43.011Z,101744.28
2023-05-14T08:52:10.729Z,101749.34
2023-05-14T08:54:38.225Z,101747.47
2023-05-14T08:57:06.058Z,101741.06
2023-05-14T08:59:32.963Z,101736.31
2023-05-14T09:02:05.069Z,101739.38
2023-05-14T09:04:32.840Z,101734.41
2023-05-14T09:07:02.685Z,101719.97
2023-05-14T09:09:30.749Z,101718.53
2023-05-14T09:11:57.690Z,101726.22
2023-05-14T09:14:24.592Z,101724.31
2023-05-14T09:16:52.213Z,101716.41
2023-05-14T09:19:19.899Z,101712.72
2023-05-14T09:21:49.081Z,101710.06
2023-05-14T09:24:21.418Z,101698.56
2023-05-14T09:26:54.906Z,101699.75
2023-05-14T09:29:21.940Z,101699.25
2023-05-14T09:31:51.594Z,101705.69
2023-05-14T09:34:30.512Z,101695.38
2023-05-14T09:37:03.016Z,101696.63
2023-05-14T09:39:31.626Z,101704.03
2023-05-14T09:41:58.632Z,101695.59
2023-05-14T09:44:26.073Z,101705.66
2023-05-14T09:46:54.285Z,101694.66
2023-05-14T09:49:21.623Z,101691.06
2023-05-14T09:51:51.928Z,101681.16
2023-05-14T09:54:18.908Z,101691.59
2023-05-14T09:56:45.855Z,101683.44
2023-05-14T09:59:12.810Z,101687.47
2023-05-14T10:01:43.313Z,101681.78
2023-05-14T10:04:11.195Z,101674.38
2023-05-14T10:06:39.757Z,101664.63
2023-05-14T10:09:13.023Z,101673.84
2023-05-14T10:11:44.325Z,101678.09
2023-05-14T10:14:21.029Z,101675.22
2023-05-14T10:16:50.836Z,101674.97
2023-05-14T10:19:20.815Z,101679.16
2023-05-14T10:21:57.412Z,101676.59
2023-05-14T10:24:26.000Z,101679.16
2023-05-14T10:26:53.533Z,101672.03
2023-05-14T10:29:20.724Z,101684.38
2023-05-14T10:31:55.799Z,101682.69
2023-05-14T10:34:43.826Z,101680.16
2023-05-14T10:37:17.260Z,101688.44
2023-05-14T10:39:58.245Z,101686.94
2023-05-14T10:42:39.644Z,101671.31
2023-05-14T10:45:08.745Z,101675.84
2023-05-14T10:47:38.112Z,101667.66
2023-05-14T10:50:11.139Z,101661.47
2023-05-14T10:52:38.035Z,101656.63
2023-05-14T10:55:10.777Z,101649.25
2023-05-14T10:57:40.200Z,101645.59
2023-05-14T11:00:08.946Z,101637.38
2023-05-14T11:02:38.620Z,101633.66
2023-05-14T11:05:13.768Z,101628.06
2023-05-14T11:07:43.688Z,101628.66
2023-05-14T11:10:19.265Z,101625.81
2023-05-14T11:12:51.022Z,101617.63
2023-05-14T11:15:23.461Z,101619.22
2023-05-14T11:17:53.624Z,101623.97
2023-05-14T11:20:21.441Z,101623.16
2023-05-14T11:22:51.686Z,101617.88
2023-05-14T11:25:18.925Z,101607.41
2023-05-14T11:27:47.448Z,101624.16
2023-05-14T11:30:21.758Z,101604.75
2023-05-14T11:32:50.664Z,101598.34
2023-05-14T11:35:18.501Z,101607.97
2023-05-14T11:37:52.282Z,101591.88
2023-05-14T11:40:19.338Z,101584.69
2023-05-14T11:42:46.303Z,101579.09
2023-05-14T11:45:23.646Z,101569.53
2023-05-14T11:47:50.554Z,101584.28
2023-05-14T11:50:17.467Z,101574.66
2023-05-14T11:52:44.364Z,101571.94
2023-05-14T11:55:12.732Z,101573.25
2023-05-14T11:57:40.859Z,101566.56
2023-05-14T12:00:16.720Z,101574.06
2023-05-14T12:02:44.009Z,101563.94
2023-05-14T12:05:13.610Z,101555.75
2023-05-14T12:07:42.002Z,101560.84
2023-05-14T12:10:12.953Z,101559.81
2023-05-14T12:12:40.097Z,101549.72
2023-05-14T12:15:14.329Z,101533.66
2023-05-14T12:17:41.979Z,101538.69
2023-05-14T12:20:11.140Z,101538.38
2023-05-14T12:22:38.808Z,101531.88
2023-05-14T12:25:14.773Z,101532.38
2023-05-14T12:27:44.822Z,101529.25
2023-05-14T12:30:21.273Z,101533.19
2023-05-14T12:32:52.032Z,101537.16
2023-05-14T12:35:20.582Z,101523.69
2023-05-14T12:37:47.632Z,101530.00
2023-05-14T12:40:14.814Z,101532.09
2023-05-14T12:42:42.067Z,101535.06
2023-05-14T12:45:09.577Z,101531.97
2023-05-14T12:47:37.475Z,101534.41
2023-05-14T12:50:06.080Z,101536.06
2023-05-14T12:52:38.402Z,101546.00
2023-05-14T12:55:09.268Z,101543.56
2023-05-14T12:57:38.868Z,101549.28
2023-05-14T13:00:08.436Z,101547.69
2023-05-14T13:02:42.721Z,101552.72
2023-05-14T13:05:11.615Z,101545.47
2023-05-14T13:07:38.848Z,101544.41
2023-05-14T13:10:06.739Z,101547.84
2023-05-14T13:12:33.964Z,101539.63
2023-05-14T13:15:00.908Z,101532.16
2023-05-14T13:17:27.910Z,101524.44
2023-05-14T13:19:54.920Z,101524.72
2023-05-14T13:22:21.802Z,101522.44
2023-05-14T13:24:48.679Z,101520.09
2023-05-14T13:27:15.663Z,101524.81
2023-05-14T13:29:42.593Z,101520.34
2023-05-14T13:32:09.520Z,101519.47
2023-05-14T13:34:36.481Z,101527.34
2023-05-14T13:37:04.022Z,101524.84
2023-05-14T13:39:31.016Z,101520.28
2023-05-14T13:41:58.012Z,101510.69
2023-05-14T13:44:25.103Z,101518.66
2023-05-14T13:46:52.015Z,101523.84
2023-05-14T13:49:18.982Z,101521.31
2023-05-14T13:51:45.987Z,101518.50
2023-05-14T13:54:12.853Z,101512.31
2023-05-14T13:56:39.741Z,101511.38
2023-05-14T13:59:06.677Z,101500.09
2023-05-14T14:01:33.656Z,101522.94
2023-05-14T14:04:00.610Z,101511.63
2023-05-14T14:06:27.567Z,101510.22
2023-05-14T14:08:54.512Z,101509.97
2023-05-14T14:11:21.919Z,101496.97
2023-05-14T14:13:48.864Z,101491.56
2023-05-14T14:16:16.249Z,101484.63
2023-05-14T14:18:43.437Z,101484.06
2023-05-14T14:21:10.707Z,101482.69
2023-05-14T14:23:37.587Z,101483.91
2023-05-14T14:26:04.607Z,101490.09
2023-05-14T14:28:31.571Z,101473.16
2023-05-14T14:30:58.593Z,101468.97
2023-05-14T14:33:25.827Z,101477.94
2023-05-14T14:35:52.962Z,101463.91
2023-05-14T14:38:19.887Z,101463.38
2023-05-14T14:40:46.856Z,101474.75
2023-05-14T14:43:13.728Z,101467.13
2023-05-14T14:45:40.662Z,101466.53
2023-05-14T14:48:33.794Z,101462.94
2023-05-14T14:51:01.551Z,101458.28
2023-05-14T14:53:28.481Z,101457.19
2023-05-14T14:55:56.220Z,101458.91
2023-05-14T14:58:23.785Z,101463.53
2023-05-14T15:00:54.038Z,101456.94
2023-05-14T15:03:21.877Z,101451.00
2023-05-14T15:05:49.450Z,101451.28
2023-05-14T15:08:16.427Z,101452.22
2023-05-14T15:10:44.943Z,101438.19
2023-05-14T15:13:12.809Z,101437.34
2023-05-14T15:15:39.732Z,101431.06
2023-05-14T15:18:06.695Z,101430.44
2023-05-14T15:20:33.873Z,101436.59
2023-05-14T15:23:00.785Z,101439.84
2023-05-14T15:25:28.660Z,101436.31
2023-05-14T15:27:55.537Z,101428.84
2023-05-14T15:30:22.471Z,101431.28
2023-05-14T15:32:49.948Z,101429.41
2023-05-14T15:35:17.023Z,101418.72
2023-05-14T15:37:45.111Z,101419.06
2023-05-14T15:40:12.602Z,101405.88
2023-05-14T15:42:43.878Z,101423.50
2023-05-14T15:45:14.700Z,101406.00
2023-05-14T15:47:42.034Z,101409.78
2023-05-14T15:50:09.370Z,101408.25
2023-05-14T15:52:36.562Z,101412.13
2023-05-14T15:55:06.516Z,101402.50
2023-05-14T15:57:33.938Z,101396.22
2023-05-14T16:00:00.887Z,101396.19
2023-05-14T16:02:30.477Z,101395.22
2023-05-14T16:04:57.511Z,101394.06
2023-05-14T16:07:24.450Z,101387.53
2023-05-14T16:09:51.732Z,101388.13
2023-05-14T16:12:18.717Z,101384.38
2023-05-14T16:14:45.693Z,101371.25
2023-05-14T16:17:12.704Z,101373.88
2023-05-14T16:19:39.903Z,101378.38
2023-05-14T16:22:06.881Z,101375.66
2023-05-14T16:24:33.830Z,101383.63
2023-05-14T16:27:00.855Z,101381.06
2023-05-14T16:29:27.900Z,101378.69
2023-05-14T16:31:55.041Z,101387.78
2023-05-14T16:34:22.046Z,101379.28
2023-05-14T16:36:49.017Z,101373.47
2023-05-14T16:39:16.564Z,101372.16
2023-05-14T16:41:43.474Z,101372.31
2023-05-14T16:44:10.631Z,101368.94
2023-05-14T16:46:37.862Z,101353.97
2023-05-14T16:49:04.837Z,101352.19
2023-05-14T16:51:31.773Z,101352.28
2023-05-14T16:53:58.748Z,101347.91
2023-05-14T16:56:26.491Z,101345.22
2023-05-14T16:58:53.532Z,101342.66
2023-05-14T17:01:20.638Z,101338.25
2023-05-14T17:03:47.649Z,101340.09
2023-05-14T17:06:14.556Z,101342.69
2023-05-14T17:08:41.466Z,101328.59
2023-05-14T17:11:08.375Z,101333.13
2023-05-14T17:13:35.643Z,101328.94
2023-05-14T17:16:02.640Z,101331.69
2023-05-14T17:18:29.824Z,101336.09
2023-05-14T17:20:56.891Z,101321.16
2023-05-14T17:23:23.783Z,101322.19
2023-05-14T17:25:50.750Z,101329.25
2023-05-14T17:28:17.651Z,101324.13
2023-05-14T17:30:44.551Z,101327.94
2023-05-14T17:33:11.701Z,101320.50
2023-05-14T17:35:38.734Z,101322.66
2023-05-14T17:38:05.652Z,101332.53
2023-05-14T17:40:33.423Z,101335.94
2023-05-14T17:43:00.500Z,101326.84
2023-05-14T17:45:29.454Z,101326.59
2023-05-14T17:47:59.253Z,101324.00
2023-05-14T17:50:26.270Z,101315.38
2023-05-14T17:52:53.976Z,101320.81
2023-05-14T17:55:21.356Z,101312.91
2023-05-14T17:57:48.306Z,101327.66
2023-05-14T18:00:15.524Z,101318.78
2023-05-14T18:02:42.476Z,101319.78
2023-05-14T18:05:09.653Z,101324.47
2023-05-14T18:07:36.779Z,101326.38
2023-05-14T18:10:04.473Z,101285.81
2023-05-14T18:12:31.411Z,101329.47
2023-05-14T18:14:58.306Z,101320.94
2023-05-14T18:17:25.327Z,101317.66
2023-05-14T18:19:52.258Z,101321.19
2023-05-14T18:22:21.480Z,101316.00
2023-05-14T18:24:48.596Z,101323.91
2023-05-14T18:27:15.674Z,101320.44
2023-05-14T18:29:43.333Z,101322.38
2023-05-14T18:32:10.251Z,101323.44
2023-05-14T18:34:37.155Z,101326.25
2023-05-14T18:37:04.138Z,101328.97
2023-05-14T18:39:31.067Z,101326.31
2023-05-14T18:41:57.992Z,101328.94
2023-05-14T18:44:24.894Z,101321.09
2023-05-14T18:46:52.309Z,101324.72
2023-05-14T18:49:19.212Z,101327.38
2023-05-14T18:51:46.837Z,101323.91
2023-05-14T18:54:13.724Z,101334.66
2023-05-14T18:56:46.767Z,101329.47
2023-05-14T18:59:14.474Z,101328.59
2023-05-14T19:01:41.494Z,101329.66
2023-05-14T19:04:08.583Z,101333.47
2023-05-14T19:06:36.145Z,101341.75
2023-05-14T19:09:04.280Z,101332.41
2023-05-14T19:11:31.223Z,101335.25
2023-05-14T19:13:58.137Z,101324.09
2023-05-14T19:16:25.107Z,101336.56
2023-05-14T19:18:52.330Z,101328.72
2023-05-14T19:21:19.360Z,101335.88
2023-05-14T19:23:46.404Z,101332.38
2023-05-14T19:26:13.277Z,101334.19
2023-05-14T19:28:40.390Z,101332.59
2023-05-14T19:31:07.434Z,101330.97
2023-05-14T19:33:34.372Z,101325.81
2023-05-14T19:36:01.238Z,101329.16
2023-05-14T19:38:28.140Z,101326.47
2023-05-14T19:40:56.898Z,101322.16
2023-05-14T19:43:25.597Z,101324.84
2023-05-14T19:45:52.575Z,101317.13
2023-05-14T19:48:19.638Z,101323.38
2023-05-14T19:50:47.329Z,101318.28
2023-05-14T19:53:14.629Z,101316.63
2023-05-14T19:55:41.791Z,101314.97
2023-05-14T19:58:08.909Z,101307.06
2023-05-14T20:00:37.067Z,101304.59
2023-05-14T20:03:05.758Z,101308.16
2023-05-14T20:05:34.306Z,101304.69
2023-05-14T20:08:01.265Z,101301.13
2023-05-14T20:10:28.480Z,101304.50
2023-05-14T20:12:55.591Z,101296.50
2023-05-14T20:15:22.499Z,101303.59
2023-05-14T20:17:49.466Z,101291.38
2023-05-14T20:20:16.658Z,101296.66
2023-05-14T20:22:44.079Z,101300.25
2023-05-14T20:25:11.153Z,101293.09
2023-05-14T20:27:38.254Z,101285.19
2023-05-14T20:30:07.470Z,101293.00
2023-05-14T20:32:34.585Z,101284.16
2023-05-14T20:35:02.297Z,101284.16
2023-05-14T20:37:30.470Z,101287.56
2023-05-14T20:39:57.469Z,101281.25
2023-05-14T20:42:25.800Z,101274.09
2023-05-14T20:44:53.668Z,101271.44
2023-05-14T20:47:24.166Z,101279.28
2023-05-14T20:49:51.457Z,101259.06
2023-05-14T20:52:18.922Z,101265.09
2023-05-14T20:54:46.174Z,101265.03
2023-05-14T20:57:17.829Z,101262.41
2023-05-14T20:59:46.011Z,101257.09
2023-05-14T21:02:13.039Z,101260.66
2023-05-14T21:04:40.070Z,101250.97
2023-05-14T21:07:07.346Z,101248.50
2023-05-14T21:09:34.235Z,101239.00
2023-05-14T21:12:01.091Z,101242.66
2023-05-14T21:14:27.942Z,101239.34
2023-05-14T21:16:54.836Z,101231.66
2023-05-14T21:19:23.267Z,101223.13
2023-05-14T21:21:50.338Z,101223.19
2023-05-14T21:24:17.268Z,101224.94
2023-05-14T21:26:44.149Z,101220.47
2023-05-14T21:29:11.325Z,101216.03
2023-05-14T21:31:38.286Z,101224.69
2023-05-14T21:34:05.359Z,101221.97
2023-05-14T21:36:32.293Z,101218.41
2023-05-14T21:38:59.197Z,101223.69
2023-05-14T21:41:26.222Z,101215.84
2023-05-14T21:43:53.203Z,101211.41
2023-05-14T21:46:20.090Z,101210.56
2023-05-14T21:48:47.152Z,101208.13
2023-05-14T21:51:14.121Z,101200.59
2023-05-14T21:53:41.029Z,101208.81
2023-05-14T21:56:08.285Z,101202.16
2023-05-14T21:58:35.784Z,101195.50
2023-05-14T22:01:02.766Z,101200.06
2023-05-14T22:03:29.710Z,101193.03
2023-05-14T22:05:56.958Z,101182.47
2023-05-14T22:08:24.152Z,101185.97
2023-05-14T22:10:51.050Z,101180.75
2023-05-14T22:13:17.926Z,101172.94
2023-05-14T22:18:12.822Z,101173.00
2023-05-14T22:20:40.099Z,101166.06
2023-05-14T22:23:07.142Z,101175.75
2023-05-14T22:25:34.283Z,101171.50
2023-05-14T22:28:01.197Z,101174.41
2023-05-14T22:30:28.089Z,101165.97
2023-05-14T22:32:54.977Z,101166.22
2023-05-14T22:35:22.149Z,101162.94
2023-05-14T22:37:49.109Z,101161.22
2023-05-14T22:40:16.101Z,101164.88
2023-05-14T22:42:43.023Z,101170.25
2023-05-14T22:45:10.463Z,101165.97
2023-05-14T22:47:38.459Z,101161.59
2023-05-14T22:50:11.211Z,101158.03
2023-05-14T22:52:39.246Z,101159.78
2023-05-14T22:55:07.202Z,101159.88
2023-05-14T22:57:34.566Z,101161.66
2023-05-14T23:00:01.566Z,101155.59
2023-05-14T23:02:28.545Z,101149.34
2023-05-14T23:04:55.770Z,101151.06
2023-05-14T23:07:22.870Z,101144.09
2023-05-14T23:09:49.771Z,101135.44
2023-05-14T23:12:16.731Z,101140.88
2023-05-14T23:14:43.605Z,101136.59
2023-05-14T23:17:10.513Z,101127.00
2023-05-14T23:19:37.421Z,101128.72
2023-05-14T23:22:04.465Z,101122.53
2023-05-14T23:24:31.347Z,101120.69
2023-05-14T23:26:58.243Z,101118.00
2023-05-14T23:29:25.194Z,101127.63
2023-05-14T23:31:52.145Z,101112.56
2023-05-14T23:34:19.033Z,101108.13
2023-05-14T23:36:46.028Z,101105.44
2023-05-14T23:39:12.971Z,101104.53
2023-05-14T23:41:39.861Z,101097.56
2023-05-14T23:44:07.285Z,101099.34
2023-05-14T23:46:34.336Z,101102.16
2023-05-14T23:49:01.475Z,101096.91
2023-05-14T23:51:28.426Z,101095.97
2023-05-14T23:53:56.358Z,101085.41
2023-05-14T23:56:30.184Z,101075.75
2023-05-14T23:58:57.175Z,101081.78
